Sant Julià de Vilatorta





Hora UTC 02:35
Temperatura 15.6 ºC
Humitat 41.9 %
Pressió 1008.0 hPa
Pluja 0.0 mm
Velocitat vent 3.1 km/h
Direcció vent SE
Radiació solar 0.0 W/m²

Dades diàries 2022-05-23



Hora UTC (hivern +1h; estiu +2h)
Temperatura (ºC) Humitat (%) Pressió (hPa) Velocitat vent (km/h) Precipitació (mm) Radiació solar (W/m²)
Hora UTC Aire Humitat Pressió Vel. Dir. Vel. Max Dir. Intent. màx 5 min. Rad. Sol.
00:05 16.3 39.2 1009.4 4.1 ESE 4.1 ESE 0.0 0.5
00:10 16.4 37.8 1009.3 2.6 SE 7.1 E 0.0 0.7
00:15 16.4 39.3 1009.5 2.0 SSE 4.9 SSE 0.0 0.4
00:20 16.3 39.7 1009.7 3.5 SSE 4.7 SSW 0.0 0.6
00:25 16.5 39.1 1009.5 2.9 ESE 4.8 SE 0.0 0.9
00:30 16.8 37.6 1009.2 5.2 E 10.0 E 0.0 1.2
00:35 17.0 36.1 1009.2 3.1 ESE 8.0 E 0.0 1.1
00:40 17.3 34.9 1009.1 2.9 SE 5.1 ESE 0.0 0.8
00:45 17.5 37.5 1008.8 2.0 ESE 5.0 SSE 0.0 0.1
00:50 17.4 36.4 1008.6 5.6 ESE 9.6 ENE 0.0 0.5
00:55 17.6 36.2 1008.8 6.2 ESE 12.8 SSE 0.0 0.3
01:00 18.0 33.2 1008.4 13.3 NNW 23.1 NNW 0.0 0.7
01:05 18.3 32.5 1008.4 6.8 N 14.5 NNW 0.0 0.0
01:10 17.9 33.9 1008.4 3.2 WNW 6.7 NNW 0.0 0.0
01:15 17.6 35.7 1008.7 4.7 NNW 9.0 NW 0.0 0.0
01:20 17.2 37.4 1009.0 3.5 SSW 6.3 SSW 0.0 0.0
01:25 16.9 38.8 1009.1 3.0 S 5.8 SSW 0.0 0.0
01:30 16.6 39.5 1009.0 3.7 E 5.2 ESE 0.0 0.0
01:35 16.4 39.6 1008.9 4.4 SE 8.3 SSE 0.0 0.0
01:40 16.6 38.3 1008.9 2.8 SE 6.3 SE 0.0 0.1
01:45 16.6 39.0 1008.9 3.6 ESE 5.7 SE 0.0 0.1
01:50 16.4 39.3 1008.8 3.4 ESE 5.5 ESE 0.0 0.2
01:55 16.3 39.7 1008.7 3.3 SE 5.7 E 0.0 0.1
02:00 16.2 39.3 1008.6 5.3 SE 9.2 SE 0.0 0.1
02:05 16.5 37.9 1008.6 2.5 SE 5.9 SE 0.0 0.1
02:10 16.2 39.8 1008.5 3.8 ESE 8.4 ESE 0.0 0.0
02:15 16.1 39.1 1008.5 4.2 ESE 8.4 SE 0.0 0.0
02:20 16.0 40.8 1008.4 4.1 ESE 6.6 ESE 0.0 0.0
02:25 15.9 40.8 1008.2 4.3 E 7.5 SSE 0.0 0.1
02:30 15.7 41.3 1008.1 3.8 E 5.7 ESE 0.0 0.0
02:35 15.6 41.9 1008.0 3.1 SE 4.9 SSE 0.0 0.0
Màxima 18.4 41.9 1009.7 13.3 NNW 23.1 NNW 0.0 1.2
Mínima 15.5 32.5 1008.0
Total 0.0